sensor_id;sensor_type;location;lat;lon;timestamp;pressure;altitude;pressure_sealevel;temperature;humidity
38616;BME280;24370;51.986;4.666;2023-04-03T00:00:38;103129.75;;;11.99;40.81
38616;BME280;24370;51.986;4.666;2023-04-03T00:03:03;103129.38;;;11.44;41.67
38616;BME280;24370;51.986;4.666;2023-04-03T00:05:29;103129.09;;;11.69;41.26
38616;BME280;24370;51.986;4.666;2023-04-03T00:07:55;103133.56;;;11.35;42.03
38616;BME280;24370;51.986;4.666;2023-04-03T00:10:20;103146.13;;;10.77;43.27
38616;BME280;24370;51.986;4.666;2023-04-03T00:12:46;103130.81;;;11.69;41.62
38616;BME280;24370;51.986;4.666;2023-04-03T00:15:12;103135.47;;;11.43;41.98
38616;BME280;24370;51.986;4.666;2023-04-03T00:17:37;103131.91;;;11.02;42.45
38616;BME280;24370;51.986;4.666;2023-04-03T00:20:04;103130.66;;;11.23;41.80
38616;BME280;24370;51.986;4.666;2023-04-03T00:22:30;103134.72;;;11.10;42.17
38616;BME280;24370;51.986;4.666;2023-04-03T00:24:56;103142.41;;;11.41;41.77
38616;BME280;24370;51.986;4.666;2023-04-03T00:27:21;103145.94;;;11.05;41.63
38616;BME280;24370;51.986;4.666;2023-04-03T00:29:47;103142.31;;;10.99;42.66
38616;BME280;24370;51.986;4.666;2023-04-03T00:32:13;103147.94;;;10.48;42.89
38616;BME280;24370;51.986;4.666;2023-04-03T00:34:38;103143.06;;;10.62;42.71
38616;BME280;24370;51.986;4.666;2023-04-03T00:37:03;103142.53;;;11.09;41.46
38616;BME280;24370;51.986;4.666;2023-04-03T00:39:29;103147.81;;;10.77;42.19
38616;BME280;24370;51.986;4.666;2023-04-03T00:41:55;103144.03;;;11.74;41.21
38616;BME280;24370;51.986;4.666;2023-04-03T00:47:13;103149.66;;;10.81;42.20
38616;BME280;24370;51.986;4.666;2023-04-03T00:49:41;103140.75;;;11.08;41.64
38616;BME280;24370;51.986;4.666;2023-04-03T00:52:11;103146.72;;;11.38;41.41
38616;BME280;24370;51.986;4.666;2023-04-03T00:54:38;103160.25;;;10.52;42.95
38616;BME280;24370;51.986;4.666;2023-04-03T00:57:06;103152.53;;;10.90;41.90
38616;BME280;24370;51.986;4.666;2023-04-03T00:59:35;103146.81;;;11.05;41.57
38616;BME280;24370;51.986;4.666;2023-04-03T01:02:04;103150.13;;;10.34;42.76
38616;BME280;24370;51.986;4.666;2023-04-03T01:06:59;103159.91;;;10.40;42.98
38616;BME280;24370;51.986;4.666;2023-04-03T01:09:26;103155.88;;;11.19;41.66
38616;BME280;24370;51.986;4.666;2023-04-03T01:11:53;103158.31;;;11.12;41.65
38616;BME280;24370;51.986;4.666;2023-04-03T01:14:18;103153.19;;;11.16;41.69
38616;BME280;24370;51.986;4.666;2023-04-03T01:16:54;103160.88;;;11.09;41.98
38616;BME280;24370;51.986;4.666;2023-04-03T01:19:22;103156.59;;;11.14;41.79
38616;BME280;24370;51.986;4.666;2023-04-03T01:22:05;103168.41;;;10.96;41.52
38616;BME280;24370;51.986;4.666;2023-04-03T01:24:39;103158.44;;;11.18;41.33
38616;BME280;24370;51.986;4.666;2023-04-03T01:27:06;103166.53;;;10.59;42.97
38616;BME280;24370;51.986;4.666;2023-04-03T01:29:34;103165.50;;;10.23;43.21
38616;BME280;24370;51.986;4.666;2023-04-03T01:32:00;103159.38;;;10.21;43.16
38616;BME280;24370;51.986;4.666;2023-04-03T01:34:27;103167.78;;;9.26;44.71
38616;BME280;24370;51.986;4.666;2023-04-03T01:36:53;103164.25;;;10.09;43.68
38616;BME280;24370;51.986;4.666;2023-04-03T01:39:19;103167.88;;;10.14;44.07
38616;BME280;24370;51.986;4.666;2023-04-03T01:41:45;103166.81;;;10.07;44.03
38616;BME280;24370;51.986;4.666;2023-04-03T01:44:10;103161.19;;;10.54;42.90
38616;BME280;24370;51.986;4.666;2023-04-03T01:46:36;103166.19;;;10.46;43.02
38616;BME280;24370;51.986;4.666;2023-04-03T01:49:03;103160.09;;;9.03;45.39
38616;BME280;24370;51.986;4.666;2023-04-03T01:51:29;103164.16;;;10.06;43.92
38616;BME280;24370;51.986;4.666;2023-04-03T01:53:55;103167.78;;;10.11;43.32
38616;BME280;24370;51.986;4.666;2023-04-03T01:56:20;103168.28;;;9.97;43.99
38616;BME280;24370;51.986;4.666;2023-04-03T01:58:46;103166.69;;;10.04;43.95
38616;BME280;24370;51.986;4.666;2023-04-03T02:01:11;103156.34;;;9.77;44.66
38616;BME280;24370;51.986;4.666;2023-04-03T02:03:36;103158.88;;;9.75;44.54
38616;BME280;24370;51.986;4.666;2023-04-03T02:06:02;103159.94;;;9.82;44.28
38616;BME280;24370;51.986;4.666;2023-04-03T02:08:27;103166.84;;;10.09;43.71
38616;BME280;24370;51.986;4.666;2023-04-03T02:10:53;103171.50;;;10.49;43.31
38616;BME280;24370;51.986;4.666;2023-04-03T02:13:18;103179.56;;;10.27;43.16
38616;BME280;24370;51.986;4.666;2023-04-03T02:15:44;103176.13;;;9.97;44.04
38616;BME280;24370;51.986;4.666;2023-04-03T02:18:11;103181.69;;;10.10;43.97
38616;BME280;24370;51.986;4.666;2023-04-03T02:20:36;103180.44;;;10.27;43.49
38616;BME280;24370;51.986;4.666;2023-04-03T02:23:02;103183.44;;;9.53;45.50
38616;BME280;24370;51.986;4.666;2023-04-03T02:25:28;103186.41;;;10.23;44.12
38616;BME280;24370;51.986;4.666;2023-04-03T02:27:55;103179.88;;;10.36;43.62
38616;BME280;24370;51.986;4.666;2023-04-03T02:30:20;103183.13;;;10.59;43.61
38616;BME280;24370;51.986;4.666;2023-04-03T02:32:45;103191.63;;;10.52;43.26
38616;BME280;24370;51.986;4.666;2023-04-03T02:35:11;103193.16;;;10.15;43.76
38616;BME280;24370;51.986;4.666;2023-04-03T02:37:37;103192.31;;;10.16;43.87
38616;BME280;24370;51.986;4.666;2023-04-03T02:40:04;103189.59;;;10.42;43.76
38616;BME280;24370;51.986;4.666;2023-04-03T02:42:29;103193.47;;;10.56;43.10
38616;BME280;24370;51.986;4.666;2023-04-03T02:44:55;103191.19;;;10.68;42.48
38616;BME280;24370;51.986;4.666;2023-04-03T02:47:20;103192.25;;;10.43;44.15
38616;BME280;24370;51.986;4.666;2023-04-03T02:49:46;103191.19;;;10.37;44.55
38616;BME280;24370;51.986;4.666;2023-04-03T02:52:13;103194.50;;;10.61;44.32
38616;BME280;24370;51.986;4.666;2023-04-03T02:54:38;103192.78;;;10.33;44.34
38616;BME280;24370;51.986;4.666;2023-04-03T02:57:04;103189.63;;;9.84;45.60
38616;BME280;24370;51.986;4.666;2023-04-03T02:59:29;103199.03;;;10.08;45.15
38616;BME280;24370;51.986;4.666;2023-04-03T03:01:55;103186.97;;;9.82;45.62
38616;BME280;24370;51.986;4.666;2023-04-03T03:04:21;103190.47;;;10.42;44.04
38616;BME280;24370;51.986;4.666;2023-04-03T03:06:46;103190.06;;;9.98;44.73
38616;BME280;24370;51.986;4.666;2023-04-03T03:09:12;103200.88;;;9.81;45.23
38616;BME280;24370;51.986;4.666;2023-04-03T03:11:38;103198.50;;;9.89;44.79
38616;BME280;24370;51.986;4.666;2023-04-03T03:14:04;103202.91;;;10.21;45.19
38616;BME280;24370;51.986;4.666;2023-04-03T03:16:30;103201.97;;;10.47;44.11
38616;BME280;24370;51.986;4.666;2023-04-03T03:18:55;103204.41;;;9.83;45.13
38616;BME280;24370;51.986;4.666;2023-04-03T03:21:20;103197.31;;;9.79;45.17
38616;BME280;24370;51.986;4.666;2023-04-03T03:23:46;103207.75;;;9.79;45.03
38616;BME280;24370;51.986;4.666;2023-04-03T03:26:11;103200.88;;;9.81;46.50
38616;BME280;24370;51.986;4.666;2023-04-03T03:28:38;103200.97;;;9.84;45.65
38616;BME280;24370;51.986;4.666;2023-04-03T03:31:05;103201.66;;;9.79;45.74
38616;BME280;24370;51.986;4.666;2023-04-03T03:33:31;103204.59;;;9.90;44.81
38616;BME280;24370;51.986;4.666;2023-04-03T03:35:56;103216.34;;;9.75;45.98
38616;BME280;24370;51.986;4.666;2023-04-03T03:38:22;103216.16;;;9.42;46.14
38616;BME280;24370;51.986;4.666;2023-04-03T03:40:50;103206.00;;;9.78;45.98
38616;BME280;24370;51.986;4.666;2023-04-03T03:43:16;103207.00;;;9.02;47.19
38616;BME280;24370;51.986;4.666;2023-04-03T03:45:41;103219.38;;;9.60;46.50
38616;BME280;24370;51.986;4.666;2023-04-03T03:48:07;103217.91;;;8.65;48.06
38616;BME280;24370;51.986;4.666;2023-04-03T03:50:33;103219.94;;;8.98;47.71
38616;BME280;24370;51.986;4.666;2023-04-03T03:52:58;103216.41;;;9.77;45.77
38616;BME280;24370;51.986;4.666;2023-04-03T03:55:24;103216.34;;;9.75;46.22
38616;BME280;24370;51.986;4.666;2023-04-03T03:57:49;103216.47;;;9.51;46.50
38616;BME280;24370;51.986;4.666;2023-04-03T04:00:15;103217.06;;;9.98;45.22
38616;BME280;24370;51.986;4.666;2023-04-03T04:02:41;103224.13;;;9.74;46.05
38616;BME280;24370;51.986;4.666;2023-04-03T04:05:06;103220.56;;;9.17;47.22
38616;BME280;24370;51.986;4.666;2023-04-03T04:07:32;103216.19;;;8.90;48.41
38616;BME280;24370;51.986;4.666;2023-04-03T04:09:57;103218.91;;;9.19;47.10
38616;BME280;24370;51.986;4.666;2023-04-03T04:12:23;103216.34;;;9.75;46.25
38616;BME280;24370;51.986;4.666;2023-04-03T04:14:48;103213.34;;;9.36;47.58
38616;BME280;24370;51.986;4.666;2023-04-03T04:17:14;103212.72;;;9.17;47.34
38616;BME280;24370;51.986;4.666;2023-04-03T04:19:39;103222.16;;;9.66;46.60
38616;BME280;24370;51.986;4.666;2023-04-03T04:22:05;103218.91;;;9.19;47.29
38616;BME280;24370;51.986;4.666;2023-04-03T04:24:30;103227.88;;;9.27;47.11
38616;BME280;24370;51.986;4.666;2023-04-03T04:26:56;103232.38;;;9.31;47.68
38616;BME280;24370;51.986;4.666;2023-04-03T04:29:21;103232.56;;;9.38;47.48
38616;BME280;24370;51.986;4.666;2023-04-03T04:31:46;103234.13;;;9.32;46.91
38616;BME280;24370;51.986;4.666;2023-04-03T04:34:12;103223.75;;;9.61;46.64
38616;BME280;24370;51.986;4.666;2023-04-03T04:36:38;103224.19;;;8.96;47.98
38616;BME280;24370;51.986;4.666;2023-04-03T04:39:04;103223.03;;;8.88;48.44
38616;BME280;24370;51.986;4.666;2023-04-03T04:41:30;103228.06;;;9.33;48.05
38616;BME280;24370;51.986;4.666;2023-04-03T04:43:55;103229.53;;;9.25;48.06
38616;BME280;24370;51.986;4.666;2023-04-03T04:46:21;103223.38;;;8.97;49.39
38616;BME280;24370;51.986;4.666;2023-04-03T04:48:47;103228.38;;;8.91;49.12
38616;BME280;24370;51.986;4.666;2023-04-03T04:51:13;103231.00;;;9.43;47.66
38616;BME280;24370;51.986;4.666;2023-04-03T04:53:39;103238.19;;;8.98;48.22
38616;BME280;24370;51.986;4.666;2023-04-03T04:56:04;103241.44;;;9.17;47.67
38616;BME280;24370;51.986;4.666;2023-04-03T04:58:30;103242.41;;;9.74;46.95
38616;BME280;24370;51.986;4.666;2023-04-03T05:01:02;103244.19;;;9.75;46.23
38616;BME280;24370;51.986;4.666;2023-04-03T05:03:29;103246.66;;;9.17;47.81
38616;BME280;24370;51.986;4.666;2023-04-03T05:05:54;103248.06;;;9.33;47.87
38616;BME280;24370;51.986;4.666;2023-04-03T05:08:20;103244.44;;;9.04;48.33
38616;BME280;24370;51.986;4.666;2023-04-03T05:10:46;103254.22;;;9.35;47.45
38616;BME280;24370;51.986;4.666;2023-04-03T05:13:12;103245.81;;;9.44;47.69
38616;BME280;24370;51.986;4.666;2023-04-03T05:15:37;103253.19;;;9.57;47.13
38616;BME280;24370;51.986;4.666;2023-04-03T05:18:02;103251.88;;;9.43;47.49
38616;BME280;24370;51.986;4.666;2023-04-03T05:20:32;103263.56;;;9.03;48.05
38616;BME280;24370;51.986;4.666;2023-04-03T05:22:58;103262.03;;;9.35;48.46
38616;BME280;24370;51.986;4.666;2023-04-03T05:25:23;103255.47;;;9.74;48.05
38616;BME280;24370;51.986;4.666;2023-04-03T05:27:49;103257.00;;;9.14;48.42
38616;BME280;24370;51.986;4.666;2023-04-03T05:30:15;103264.00;;;8.91;48.63
38616;BME280;24370;51.986;4.666;2023-04-03T05:32:40;103275.88;;;9.58;47.88
38616;BME280;24370;51.986;4.666;2023-04-03T05:35:06;103272.53;;;9.90;48.07
38616;BME280;24370;51.986;4.666;2023-04-03T05:37:33;103273.50;;;9.39;48.25
38616;BME280;24370;51.986;4.666;2023-04-03T05:39:58;103267.34;;;8.87;49.01
38616;BME280;24370;51.986;4.666;2023-04-03T05:42:23;103277.22;;;8.71;49.86
38616;BME280;24370;51.986;4.666;2023-04-03T05:44:49;103275.69;;;9.52;48.91
38616;BME280;24370;51.986;4.666;2023-04-03T05:47:15;103279.41;;;9.09;48.78
38616;BME280;24370;51.986;4.666;2023-04-03T05:49:41;103274.31;;;8.63;50.27
38616;BME280;24370;51.986;4.666;2023-04-03T05:52:28;103268.88;;;8.81;49.73
38616;BME280;24370;51.986;4.666;2023-04-03T05:54:55;103274.53;;;8.94;49.41
38616;BME280;24370;51.986;4.666;2023-04-03T05:57:21;103277.63;;;8.59;50.19
38616;BME280;24370;51.986;4.666;2023-04-03T05:59:47;103276.75;;;9.07;49.63
38616;BME280;24370;51.986;4.666;2023-04-03T06:02:15;103278.53;;;9.08;49.34
38616;BME280;24370;51.986;4.666;2023-04-03T06:04:41;103288.19;;;9.11;49.71
38616;BME280;24370;51.986;4.666;2023-04-03T06:07:08;103281.88;;;9.04;49.79
38616;BME280;24370;51.986;4.666;2023-04-03T06:09:35;103276.44;;;8.98;50.75
38616;BME280;24370;51.986;4.666;2023-04-03T06:12:01;103286.47;;;8.63;50.41
38616;BME280;24370;51.986;4.666;2023-04-03T06:14:27;103285.84;;;9.70;48.60
38616;BME280;24370;51.986;4.666;2023-04-03T06:16:53;103292.25;;;9.28;48.90
38616;BME280;24370;51.986;4.666;2023-04-03T06:19:19;103288.91;;;9.84;47.83
38616;BME280;24370;51.986;4.666;2023-04-03T06:21:45;103295.94;;;9.33;49.70
38616;BME280;24370;51.986;4.666;2023-04-03T06:24:15;103295.56;;;8.74;50.58
38616;BME280;24370;51.986;4.666;2023-04-03T06:26:41;103296.25;;;8.46;51.61
38616;BME280;24370;51.986;4.666;2023-04-03T06:29:07;103314.25;;;9.35;49.46
38616;BME280;24370;51.986;4.666;2023-04-03T06:31:33;103301.25;;;9.11;51.46
38616;BME280;24370;51.986;4.666;2023-04-03T06:33:58;103299.81;;;9.72;48.71
38616;BME280;24370;51.986;4.666;2023-04-03T06:36:23;103305.16;;;9.24;50.15
38616;BME280;24370;51.986;4.666;2023-04-03T06:38:49;103299.50;;;9.36;49.13
38616;BME280;24370;51.986;4.666;2023-04-03T06:41:15;103303.66;;;9.56;49.04
38616;BME280;24370;51.986;4.666;2023-04-03T06:43:42;103296.69;;;9.82;49.08
38616;BME280;24370;51.986;4.666;2023-04-03T06:46:19;103303.34;;;9.47;49.00
38616;BME280;24370;51.986;4.666;2023-04-03T06:48:45;103307.44;;;9.14;49.30
38616;BME280;24370;51.986;4.666;2023-04-03T06:51:19;103304.75;;;9.63;49.14
38616;BME280;24370;51.986;4.666;2023-04-03T06:53:46;103313.25;;;9.83;49.02
38616;BME280;24370;51.986;4.666;2023-04-03T06:56:12;103307.44;;;9.64;49.11
38616;BME280;24370;51.986;4.666;2023-04-03T06:58:38;103310.38;;;10.02;48.66
38616;BME280;24370;51.986;4.666;2023-04-03T07:01:03;103318.06;;;10.25;47.78
38616;BME280;24370;51.986;4.666;2023-04-03T07:03:29;103311.97;;;9.70;49.58
38616;BME280;24370;51.986;4.666;2023-04-03T07:05:55;103315.84;;;9.06;49.08
38616;BME280;24370;51.986;4.666;2023-04-03T07:08:20;103324.31;;;10.01;48.16
38616;BME280;24370;51.986;4.666;2023-04-03T07:10:46;103325.91;;;9.45;49.69
38616;BME280;24370;51.986;4.666;2023-04-03T07:13:11;103331.50;;;9.06;49.81
38616;BME280;24370;51.986;4.666;2023-04-03T07:15:37;103328.56;;;10.54;47.54
38616;BME280;24370;51.986;4.666;2023-04-03T07:18:02;103332.22;;;9.77;47.93
38616;BME280;24370;51.986;4.666;2023-04-03T07:20:29;103331.84;;;9.41;48.79
38616;BME280;24370;51.986;4.666;2023-04-03T07:22:55;103332.06;;;10.00;47.39
38616;BME280;24370;51.986;4.666;2023-04-03T07:25:20;103332.25;;;10.33;47.68
38616;BME280;24370;51.986;4.666;2023-04-03T07:27:45;103334.69;;;10.56;46.99
38616;BME280;24370;51.986;4.666;2023-04-03T07:30:11;103336.94;;;10.73;46.72
38616;BME280;24370;51.986;4.666;2023-04-03T07:32:39;103339.03;;;11.16;45.44
38616;BME280;24370;51.986;4.666;2023-04-03T07:35:05;103329.13;;;13.81;40.54
38616;BME280;24370;51.986;4.666;2023-04-03T07:37:30;103326.84;;;14.68;37.16
38616;BME280;24370;51.986;4.666;2023-04-03T07:39:55;103329.28;;;15.28;35.78
38616;BME280;24370;51.986;4.666;2023-04-03T07:42:22;103329.91;;;15.05;34.82
38616;BME280;24370;51.986;4.666;2023-04-03T07:44:47;103330.16;;;16.39;33.82
38616;BME280;24370;51.986;4.666;2023-04-03T07:47:13;103342.81;;;15.65;33.62
38616;BME280;24370;51.986;4.666;2023-04-03T07:49:41;103345.38;;;16.96;32.31
38616;BME280;24370;51.986;4.666;2023-04-03T07:52:06;103340.22;;;17.89;30.67
38616;BME280;24370;51.986;4.666;2023-04-03T07:54:33;103337.34;;;16.68;31.97
38616;BME280;24370;51.986;4.666;2023-04-03T07:56:59;103340.19;;;17.42;31.77
38616;BME280;24370;51.986;4.666;2023-04-03T07:59:24;103336.63;;;17.16;30.68
38616;BME280;24370;51.986;4.666;2023-04-03T08:01:49;103346.38;;;17.38;30.59
38616;BME280;24370;51.986;4.666;2023-04-03T08:04:15;103345.31;;;18.69;29.40
38616;BME280;24370;51.986;4.666;2023-04-03T08:06:40;103335.50;;;20.09;28.25
38616;BME280;24370;51.986;4.666;2023-04-03T08:09:06;103347.16;;;20.75;26.63
38616;BME280;24370;51.986;4.666;2023-04-03T08:11:31;103350.06;;;19.62;27.09
38616;BME280;24370;51.986;4.666;2023-04-03T08:13:56;103353.94;;;19.14;27.21
38616;BME280;24370;51.986;4.666;2023-04-03T08:16:23;103352.81;;;19.49;27.12
38616;BME280;24370;51.986;4.666;2023-04-03T08:18:50;103354.88;;;19.04;28.31
38616;BME280;24370;51.986;4.666;2023-04-03T08:21:16;103351.66;;;19.85;27.67
38616;BME280;24370;51.986;4.666;2023-04-03T08:23:42;103358.03;;;19.62;27.69
38616;BME280;24370;51.986;4.666;2023-04-03T08:26:15;103357.53;;;19.01;27.45
38616;BME280;24370;51.986;4.666;2023-04-03T08:28:41;103359.72;;;19.71;27.34
38616;BME280;24370;51.986;4.666;2023-04-03T08:31:10;103363.19;;;19.77;28.33
38616;BME280;24370;51.986;4.666;2023-04-03T08:33:37;103365.06;;;19.67;27.51
38616;BME280;24370;51.986;4.666;2023-04-03T08:36:04;103362.44;;;19.60;28.22
38616;BME280;24370;51.986;4.666;2023-04-03T08:38:30;103371.63;;;19.09;27.45
38616;BME280;24370;51.986;4.666;2023-04-03T08:41:04;103357.59;;;20.11;26.57
38616;BME280;24370;51.986;4.666;2023-04-03T08:46:37;103355.13;;;20.74;24.67
38616;BME280;24370;51.986;4.666;2023-04-03T08:49:21;103370.94;;;18.67;26.30
38616;BME280;24370;51.986;4.666;2023-04-03T08:51:49;103364.63;;;18.99;25.64
38616;BME280;24370;51.986;4.666;2023-04-03T08:54:28;103369.81;;;19.18;25.13
38616;BME280;24370;51.986;4.666;2023-04-03T08:56:56;103355.31;;;21.24;24.67
38616;BME280;24370;51.986;4.666;2023-04-03T08:59:28;103370.44;;;19.57;24.46
38616;BME280;24370;51.986;4.666;2023-04-03T09:01:57;103378.16;;;19.91;23.89
38616;BME280;24370;51.986;4.666;2023-04-03T09:04:26;103362.25;;;19.88;24.56
38616;BME280;24370;51.986;4.666;2023-04-03T09:07:00;103358.47;;;20.13;22.58
38616;BME280;24370;51.986;4.666;2023-04-03T09:09:35;103363.47;;;21.11;22.89
38616;BME280;24370;51.986;4.666;2023-04-03T09:19:59;103362.44;;;21.22;21.93
38616;BME280;24370;51.986;4.666;2023-04-03T09:22:28;103357.00;;;19.81;21.90
38616;BME280;24370;51.986;4.666;2023-04-03T09:27:25;103348.13;;;20.66;19.39
38616;BME280;24370;51.986;4.666;2023-04-03T09:29:53;103365.81;;;19.87;21.98
38616;BME280;24370;51.986;4.666;2023-04-03T09:32:32;103358.75;;;20.68;21.56
38616;BME280;24370;51.986;4.666;2023-04-03T09:35:02;103363.44;;;20.44;21.79
38616;BME280;24370;51.986;4.666;2023-04-03T09:37:43;103351.31;;;20.95;21.47
38616;BME280;24370;51.986;4.666;2023-04-03T09:42:49;103340.81;;;20.86;19.79
38616;BME280;24370;51.986;4.666;2023-04-03T09:45:27;103342.00;;;20.60;20.30
38616;BME280;24370;51.986;4.666;2023-04-03T09:48:05;103340.00;;;20.80;20.06
38616;BME280;24370;51.986;4.666;2023-04-03T09:50:33;103344.03;;;19.40;21.53
38616;BME280;24370;51.986;4.666;2023-04-03T09:53:06;103336.22;;;20.97;20.14
38616;BME280;24370;51.986;4.666;2023-04-03T09:55:32;103325.22;;;21.22;19.45
38616;BME280;24370;51.986;4.666;2023-04-03T09:58:00;103335.06;;;19.58;19.95
38616;BME280;24370;51.986;4.666;2023-04-03T10:00:36;103320.94;;;21.11;18.92
38616;BME280;24370;51.986;4.666;2023-04-03T10:03:04;103324.75;;;21.52;19.59
38616;BME280;24370;51.986;4.666;2023-04-03T10:05:40;103325.75;;;20.84;18.97
38616;BME280;24370;51.986;4.666;2023-04-03T10:08:18;103319.78;;;19.88;19.44
38616;BME280;24370;51.986;4.666;2023-04-03T10:10:46;103308.59;;;20.40;19.73
38616;BME280;24370;51.986;4.666;2023-04-03T10:13:19;103315.25;;;20.75;18.54
38616;BME280;24370;51.986;4.666;2023-04-03T10:16:06;103315.50;;;21.75;17.30
38616;BME280;24370;51.986;4.666;2023-04-03T10:18:45;103305.31;;;21.97;17.55
38616;BME280;24370;51.986;4.666;2023-04-03T10:21:38;103310.69;;;21.96;17.37
38616;BME280;24370;51.986;4.666;2023-04-03T10:24:17;103301.50;;;21.64;17.98
38616;BME280;24370;51.986;4.666;2023-04-03T10:29:31;103300.25;;;21.83;18.63
38616;BME280;24370;51.986;4.666;2023-04-03T10:34:46;103291.38;;;24.45;16.58
38616;BME280;24370;51.986;4.666;2023-04-03T10:57:22;103289.47;;;22.38;16.18
38616;BME280;24370;51.986;4.666;2023-04-03T11:00:20;103296.22;;;19.50;17.87
38616;BME280;24370;51.986;4.666;2023-04-03T11:02:59;103284.84;;;22.01;16.59
38616;BME280;24370;51.986;4.666;2023-04-03T11:05:44;103293.38;;;21.72;17.22
38616;BME280;24370;51.986;4.666;2023-04-03T11:11:13;103283.97;;;21.50;17.36
38616;BME280;24370;51.986;4.666;2023-04-03T11:13:46;103289.50;;;21.38;16.22
38616;BME280;24370;51.986;4.666;2023-04-03T11:16:19;103295.34;;;19.48;17.13
38616;BME280;24370;51.986;4.666;2023-04-03T11:18:52;103284.53;;;18.35;17.83
38616;BME280;24370;51.986;4.666;2023-04-03T11:21:24;103286.63;;;19.34;18.44
38616;BME280;24370;51.986;4.666;2023-04-03T11:23:56;103277.16;;;20.76;18.09
38616;BME280;24370;51.986;4.666;2023-04-03T11:26:27;103278.72;;;20.23;17.90
38616;BME280;24370;51.986;4.666;2023-04-03T11:28:59;103274.25;;;20.92;16.06
38616;BME280;24370;51.986;4.666;2023-04-03T11:31:37;103278.91;;;20.77;15.97
38616;BME280;24370;51.986;4.666;2023-04-03T11:36:55;103261.38;;;19.91;16.68
38616;BME280;24370;51.986;4.666;2023-04-03T11:39:28;103256.47;;;21.50;16.66
38616;BME280;24370;51.986;4.666;2023-04-03T12:00:46;103226.28;;;21.52;16.00
38616;BME280;24370;51.986;4.666;2023-04-03T12:08:44;103228.09;;;19.56;16.87
38616;BME280;24370;51.986;4.666;2023-04-03T12:14:02;103228.56;;;19.03;16.97
38616;BME280;24370;51.986;4.666;2023-04-03T12:16:44;103220.63;;;19.95;18.49
38616;BME280;24370;51.986;4.666;2023-04-03T12:48:31;103198.00;;;18.42;20.34
38616;BME280;24370;51.986;4.666;2023-04-03T12:50:58;103193.25;;;18.98;19.45
38616;BME280;24370;51.986;4.666;2023-04-03T12:53:32;103191.81;;;19.56;20.11
38616;BME280;24370;51.986;4.666;2023-04-03T12:58:49;103191.84;;;18.41;19.63
38616;BME280;24370;51.986;4.666;2023-04-03T13:01:21;103173.59;;;20.06;20.28
38616;BME280;24370;51.986;4.666;2023-04-03T13:03:53;103180.78;;;19.09;19.84
38616;BME280;24370;51.986;4.666;2023-04-03T13:06:28;103187.66;;;17.85;20.71
38616;BME280;24370;51.986;4.666;2023-04-03T13:08:58;103179.00;;;19.11;20.47
38616;BME280;24370;51.986;4.666;2023-04-03T13:11:34;103172.28;;;18.67;21.20
38616;BME280;24370;51.986;4.666;2023-04-03T13:14:03;103163.91;;;20.02;20.52
38616;BME280;24370;51.986;4.666;2023-04-03T13:16:31;103174.09;;;18.54;20.15
38616;BME280;24370;51.986;4.666;2023-04-03T13:18:57;103166.22;;;18.45;20.67
38616;BME280;24370;51.986;4.666;2023-04-03T13:21:29;103145.63;;;18.89;20.49
38616;BME280;24370;51.986;4.666;2023-04-03T13:23:58;103158.63;;;17.60;21.66
38616;BME280;24370;51.986;4.666;2023-04-03T13:26:29;103157.81;;;19.11;20.61
38616;BME280;24370;51.986;4.666;2023-04-03T13:28:59;103170.06;;;17.63;21.48
38616;BME280;24370;51.986;4.666;2023-04-03T13:31:29;103168.91;;;18.40;21.34
38616;BME280;24370;51.986;4.666;2023-04-03T13:34:02;103164.69;;;17.99;20.39
38616;BME280;24370;51.986;4.666;2023-04-03T13:36:33;103165.59;;;17.89;21.13
38616;BME280;24370;51.986;4.666;2023-04-03T13:39:00;103160.94;;;18.46;20.72
38616;BME280;24370;51.986;4.666;2023-04-03T13:43:54;103158.50;;;17.91;20.80
38616;BME280;24370;51.986;4.666;2023-04-03T13:48:48;103155.03;;;17.83;20.64
38616;BME280;24370;51.986;4.666;2023-04-03T13:51:19;103151.53;;;17.71;21.35
38616;BME280;24370;51.986;4.666;2023-04-03T13:53:50;103156.91;;;17.46;21.25
38616;BME280;24370;51.986;4.666;2023-04-03T13:56:29;103156.00;;;16.66;22.25
38616;BME280;24370;51.986;4.666;2023-04-03T14:01:45;103147.91;;;18.09;21.34
38616;BME280;24370;51.986;4.666;2023-04-03T14:04:20;103141.50;;;18.46;21.34
38616;BME280;24370;51.986;4.666;2023-04-03T14:06:47;103138.97;;;18.23;20.84
38616;BME280;24370;51.986;4.666;2023-04-03T14:09:13;103137.31;;;18.06;21.57
38616;BME280;24370;51.986;4.666;2023-04-03T14:11:40;103137.09;;;18.46;21.59
38616;BME280;24370;51.986;4.666;2023-04-03T14:14:13;103120.66;;;19.14;21.54
38616;BME280;24370;51.986;4.666;2023-04-03T14:16:42;103126.19;;;18.90;20.63
38616;BME280;24370;51.986;4.666;2023-04-03T14:19:18;103128.16;;;18.63;20.70
38616;BME280;24370;51.986;4.666;2023-04-03T14:21:43;103124.09;;;18.03;21.39
38616;BME280;24370;51.986;4.666;2023-04-03T14:24:09;103131.09;;;18.12;21.62
38616;BME280;24370;51.986;4.666;2023-04-03T14:26:36;103114.91;;;18.64;21.88
38616;BME280;24370;51.986;4.666;2023-04-03T14:29:02;103117.94;;;18.01;21.73
38616;BME280;24370;51.986;4.666;2023-04-03T14:31:27;103121.50;;;17.81;22.01
38616;BME280;24370;51.986;4.666;2023-04-03T14:33:53;103113.25;;;18.48;21.01
38616;BME280;24370;51.986;4.666;2023-04-03T14:36:23;103106.78;;;18.83;20.92
38616;BME280;24370;51.986;4.666;2023-04-03T14:38:51;103114.25;;;18.27;21.33
38616;BME280;24370;51.986;4.666;2023-04-03T14:41:19;103095.81;;;19.23;20.82
38616;BME280;24370;51.986;4.666;2023-04-03T14:43:46;103094.91;;;18.22;21.70
38616;BME280;24370;51.986;4.666;2023-04-03T14:46:22;103089.28;;;18.65;21.61
38616;BME280;24370;51.986;4.666;2023-04-03T14:48:49;103100.47;;;17.46;22.35
38616;BME280;24370;51.986;4.666;2023-04-03T14:51:15;103093.84;;;18.44;22.34
38616;BME280;24370;51.986;4.666;2023-04-03T14:53:42;103089.09;;;18.87;21.83
38616;BME280;24370;51.986;4.666;2023-04-03T14:56:19;103092.69;;;18.78;21.73